createdAt,value
2022-09-11T00:01:15.840Z,116.70
2022-09-11T00:03:44.015Z,119.20
2022-09-11T00:06:28.581Z,116.60
2022-09-11T00:09:02.100Z,117.80
2022-09-11T00:11:35.910Z,126.80
2022-09-11T00:14:03.162Z,153.77
2022-09-11T00:16:35.804Z,158.13
2022-09-11T00:19:05.863Z,164.03
2022-09-11T00:21:32.972Z,152.57
2022-09-11T00:23:59.912Z,156.77
2022-09-11T00:26:26.681Z,159.97
2022-09-11T00:28:53.941Z,168.47
2022-09-11T00:31:24.451Z,139.43
2022-09-11T00:33:51.719Z,154.40
2022-09-11T00:36:21.122Z,137.93
2022-09-11T00:38:49.300Z,144.73
2022-09-11T00:41:22.316Z,138.83
2022-09-11T00:43:53.824Z,144.47
2022-09-11T00:46:20.899Z,145.30
2022-09-11T00:48:50.757Z,145.57
2022-09-11T00:51:21.845Z,125.03
2022-09-11T00:53:51.243Z,136.10
2022-09-11T00:56:18.464Z,137.60
2022-09-11T00:58:48.241Z,134.00
2022-09-11T01:01:15.168Z,135.53
2022-09-11T01:03:42.363Z,134.03
2022-09-11T01:06:10.517Z,130.00
2022-09-11T01:08:38.510Z,119.87
2022-09-11T01:11:31.343Z,123.13
2022-09-11T01:14:00.795Z,127.73
2022-09-11T01:17:08.064Z,116.70
2022-09-11T01:20:10.079Z,125.73
2022-09-11T01:23:16.441Z,119.43
2022-09-11T01:26:05.175Z,132.73
2022-09-11T01:28:52.182Z,132.23
2022-09-11T01:31:24.644Z,134.10
2022-09-11T01:33:59.871Z,134.73
2022-09-11T01:36:36.445Z,130.37
2022-09-11T01:39:04.947Z,142.97
2022-09-11T01:41:53.295Z,127.43
2022-09-11T01:44:27.005Z,134.10
2022-09-11T01:46:53.861Z,141.87
2022-09-11T01:49:37.050Z,146.63
2022-09-11T01:52:12.748Z,142.43
2022-09-11T01:54:42.803Z,158.10
2022-09-11T01:57:24.773Z,147.00
2022-09-11T01:59:58.799Z,146.13
2022-09-11T02:02:30.793Z,167.07
2022-09-11T02:05:15.695Z,153.53
2022-09-11T02:07:48.918Z,160.97
2022-09-11T02:10:22.550Z,150.30
2022-09-11T02:13:14.786Z,151.80
2022-09-11T02:15:56.878Z,147.93
2022-09-11T02:18:28.051Z,168.10
2022-09-11T02:20:54.712Z,158.90
2022-09-11T02:23:21.681Z,174.83
2022-09-11T02:25:52.103Z,177.00
2022-09-11T02:28:18.919Z,172.60
2022-09-11T02:30:46.371Z,168.07
2022-09-11T02:33:34.077Z,162.70
2022-09-11T02:36:29.795Z,143.70
2022-09-11T02:39:34.993Z,148.20
2022-09-11T02:42:04.601Z,147.33
2022-09-11T02:44:53.693Z,141.63
2022-09-11T02:47:49.713Z,135.20
2022-09-11T02:50:38.044Z,130.47
2022-09-11T02:53:04.773Z,132.30
2022-09-11T02:55:43.356Z,136.60
2022-09-11T02:58:15.601Z,148.57
2022-09-11T03:00:48.026Z,146.43
2022-09-11T03:03:15.421Z,140.77
2022-09-11T03:05:43.167Z,152.37
2022-09-11T03:08:11.570Z,144.00
2022-09-11T03:10:39.116Z,155.33
2022-09-11T03:13:09.218Z,159.47
2022-09-11T03:15:36.047Z,149.13
2022-09-11T03:18:05.229Z,271.53
2022-09-11T03:20:31.994Z,184.30
2022-09-11T03:22:58.650Z,222.03
2022-09-11T03:25:28.097Z,132.43
2022-09-11T03:27:56.282Z,214.80
2022-09-11T03:30:23.242Z,462.10
2022-09-11T03:32:49.974Z,254.73
2022-09-11T03:35:17.743Z,400.47
2022-09-11T03:37:46.997Z,610.63
2022-09-11T03:40:13.773Z,439.40
2022-09-11T03:42:41.781Z,492.17
2022-09-11T03:45:09.324Z,421.23
2022-09-11T03:47:37.000Z,533.60
2022-09-11T03:50:04.643Z,618.13
2022-09-11T03:52:32.422Z,409.10
2022-09-11T03:55:00.221Z,433.77
2022-09-11T03:57:27.081Z,770.27
2022-09-11T03:59:55.914Z,271.00
2022-09-11T04:02:23.723Z,522.20
2022-09-11T04:04:52.959Z,368.97
2022-09-11T04:07:19.727Z,273.20
2022-09-11T04:09:46.577Z,581.90
2022-09-11T04:12:13.660Z,770.03
2022-09-11T04:14:40.831Z,791.47
2022-09-11T04:17:08.196Z,242.73
2022-09-11T04:19:36.690Z,688.60
2022-09-11T04:22:04.258Z,511.90
2022-09-11T04:24:34.647Z,608.20
2022-09-11T04:27:01.387Z,967.43
2022-09-11T04:29:29.505Z,826.80
2022-09-11T04:31:57.668Z,567.63
2022-09-11T04:34:28.035Z,505.60
2022-09-11T04:36:56.059Z,419.97
2022-09-11T04:39:23.205Z,460.73
2022-09-11T04:41:50.003Z,440.00
2022-09-11T04:44:16.808Z,810.73
2022-09-11T04:46:45.150Z,299.77
2022-09-11T04:49:12.018Z,748.13
2022-09-11T04:51:40.427Z,384.47
2022-09-11T04:54:14.305Z,358.23
2022-09-11T04:56:41.220Z,389.17
2022-09-11T04:59:16.103Z,450.90
2022-09-11T05:01:48.896Z,328.77
2022-09-11T05:04:21.695Z,245.60
2022-09-11T05:06:49.704Z,357.23
2022-09-11T05:09:18.862Z,190.80
2022-09-11T05:11:47.674Z,202.10
2022-09-11T05:14:15.399Z,236.30
2022-09-11T05:16:45.319Z,219.07
2022-09-11T05:19:13.072Z,225.30
2022-09-11T05:21:40.142Z,235.53
2022-09-11T05:24:07.807Z,198.90
2022-09-11T05:26:36.832Z,224.90
2022-09-11T05:29:13.295Z,229.20
2022-09-11T05:31:58.776Z,226.23
2022-09-11T05:34:28.839Z,256.23
2022-09-11T05:36:59.793Z,228.90
2022-09-11T05:39:29.244Z,210.90
2022-09-11T05:41:56.823Z,230.37
2022-09-11T05:44:30.029Z,237.03
2022-09-11T05:46:58.377Z,230.23
2022-09-11T05:49:25.607Z,212.40
2022-09-11T05:51:52.430Z,209.83
2022-09-11T05:54:19.266Z,221.77
2022-09-11T05:56:46.673Z,215.60
2022-09-11T05:59:20.937Z,215.00
2022-09-11T06:01:50.328Z,195.50
2022-09-11T06:04:38.346Z,207.47
2022-09-11T06:07:06.299Z,213.60
2022-09-11T06:09:34.678Z,223.83
2022-09-11T06:12:01.901Z,227.37
2022-09-11T06:14:29.142Z,224.13
2022-09-11T06:16:57.092Z,225.27
2022-09-11T06:19:25.109Z,201.90
2022-09-11T06:21:51.809Z,200.23
2022-09-11T06:24:24.645Z,195.97
2022-09-11T06:26:51.464Z,219.70
2022-09-11T06:29:19.425Z,205.57
2022-09-11T06:31:51.161Z,202.07
2022-09-11T06:34:21.139Z,191.87
2022-09-11T06:36:51.812Z,181.77
2022-09-11T06:39:22.876Z,169.57
2022-09-11T06:41:50.477Z,150.20
2022-09-11T06:44:18.375Z,142.93
2022-09-11T06:46:45.920Z,148.80
2022-09-11T06:49:14.344Z,135.53
2022-09-11T06:51:59.535Z,129.93
2022-09-11T06:54:26.423Z,138.93
2022-09-11T06:56:54.619Z,113.57
2022-09-11T06:59:23.796Z,109.17
2022-09-11T07:01:51.723Z,115.00
2022-09-11T07:04:18.556Z,110.03
2022-09-11T07:06:47.964Z,121.93
2022-09-11T07:09:15.806Z,100.23
2022-09-11T07:11:48.423Z,106.77
2022-09-11T07:14:20.985Z,99.20
2022-09-11T07:16:54.910Z,113.73
2022-09-11T07:19:24.801Z,109.93
2022-09-11T07:21:51.887Z,103.40
2022-09-11T07:24:19.456Z,91.20
2022-09-11T07:26:46.584Z,88.17
2022-09-11T07:29:19.265Z,84.37
2022-09-11T07:31:47.715Z,85.10
2022-09-11T07:34:15.593Z,87.90
2022-09-11T07:36:43.210Z,96.50
2022-09-11T07:39:10.168Z,107.60
2022-09-11T07:41:52.520Z,128.40
2022-09-11T07:44:24.748Z,121.47
2022-09-11T07:46:52.958Z,128.00
2022-09-11T07:49:20.210Z,124.53
2022-09-11T07:51:47.046Z,123.53
2022-09-11T07:54:19.729Z,106.93
2022-09-11T07:56:48.357Z,107.13
2022-09-11T07:59:18.202Z,112.50
2022-09-11T08:01:47.669Z,102.07
2022-09-11T08:04:16.229Z,100.97
2022-09-11T08:06:43.913Z,99.03
2022-09-11T08:09:17.450Z,105.37
2022-09-11T08:11:49.477Z,100.00
2022-09-11T08:14:18.321Z,99.97
2022-09-11T08:16:48.275Z,88.77
2022-09-11T08:19:18.379Z,95.97
2022-09-11T08:21:48.277Z,109.83
2022-09-11T08:24:17.030Z,126.77
2022-09-11T08:26:48.814Z,121.10
2022-09-11T08:29:18.142Z,126.57
2022-09-11T08:31:45.246Z,138.93
2022-09-11T08:34:12.597Z,130.43
2022-09-11T08:36:39.889Z,138.20
2022-09-11T08:39:08.971Z,181.17
2022-09-11T08:41:47.880Z,179.37
2022-09-11T08:44:26.036Z,158.00
2022-09-11T08:47:12.757Z,138.47
2022-09-11T08:49:43.294Z,130.70
2022-09-11T08:52:13.905Z,122.20
2022-09-11T08:54:43.363Z,119.03
2022-09-11T08:57:42.395Z,120.00
2022-09-11T09:00:22.639Z,181.47
2022-09-11T09:03:38.096Z,123.87
2022-09-11T09:06:21.480Z,151.90
2022-09-11T09:09:30.752Z,120.03
2022-09-11T09:12:23.698Z,135.27
2022-09-11T09:15:09.231Z,131.33
2022-09-11T09:17:46.443Z,125.03
2022-09-11T09:20:21.075Z,137.33
2022-09-11T09:23:01.725Z,139.80
2022-09-11T09:25:34.361Z,127.23
2022-09-11T09:28:25.361Z,137.00
2022-09-11T09:30:52.197Z,128.83
2022-09-11T09:33:35.577Z,113.47
2022-09-11T09:36:14.391Z,107.77
2022-09-11T09:38:41.427Z,99.27
2022-09-11T09:41:46.209Z,92.00
2022-09-11T09:44:47.794Z,102.57
2022-09-11T09:47:15.204Z,98.73
2022-09-11T09:49:43.206Z,100.37
2022-09-11T09:52:18.262Z,92.80
2022-09-11T09:55:03.006Z,88.00
2022-09-11T09:57:32.981Z,88.23
2022-09-11T10:00:12.394Z,89.50
2022-09-11T10:02:56.422Z,96.77
2022-09-11T10:05:29.383Z,86.57
2022-09-11T10:08:05.321Z,97.60
2022-09-11T10:10:36.234Z,87.27
2022-09-11T10:13:19.422Z,89.77
2022-09-11T10:15:49.475Z,83.03
2022-09-11T10:18:32.563Z,80.47
2022-09-11T10:21:11.574Z,79.80
2022-09-11T10:23:57.940Z,75.73
2022-09-11T10:26:43.128Z,73.43
2022-09-11T10:29:19.150Z,77.20
2022-09-11T10:31:51.615Z,69.67
2022-09-11T10:34:20.263Z,65.90
2022-09-11T10:36:55.688Z,78.17
2022-09-11T10:39:25.254Z,74.67
2022-09-11T10:41:54.810Z,71.67
2022-09-11T10:44:22.664Z,71.17
2022-09-11T10:47:22.228Z,67.70
2022-09-11T10:49:49.481Z,68.80
2022-09-11T10:52:19.036Z,59.70
2022-09-11T10:55:07.490Z,63.63
2022-09-11T10:57:52.194Z,64.17
2022-09-11T11:00:30.046Z,59.60
2022-09-11T11:03:17.330Z,56.53
2022-09-11T11:06:01.002Z,62.30
2022-09-11T11:08:37.839Z,59.13
2022-09-11T11:11:23.050Z,58.43
2022-09-11T11:13:55.674Z,58.00
2022-09-11T11:16:28.230Z,55.80
2022-09-11T11:19:03.987Z,54.07
2022-09-11T11:22:12.208Z,60.07
2022-09-11T11:24:52.250Z,59.63
2022-09-11T11:27:54.457Z,54.90
2022-09-11T11:30:24.851Z,54.00
2022-09-11T11:33:03.959Z,55.50
2022-09-11T11:35:55.655Z,50.70
2022-09-11T11:38:52.886Z,53.30
2022-09-11T11:41:25.471Z,48.47
2022-09-11T11:43:55.464Z,48.60
2022-09-11T11:46:38.708Z,47.37
2022-09-11T11:49:19.379Z,51.93
2022-09-11T11:52:05.206Z,44.60
2022-09-11T11:54:46.497Z,40.60
2022-09-11T11:57:20.528Z,47.30
2022-09-11T11:59:50.711Z,44.90
2022-09-11T12:02:22.524Z,44.33
2022-09-11T12:05:05.271Z,48.03
2022-09-11T12:07:34.092Z,43.93
2022-09-11T12:10:02.868Z,37.90
2022-09-11T12:12:33.810Z,38.37
2022-09-11T12:15:10.116Z,37.30
2022-09-11T12:17:39.702Z,33.93
2022-09-11T12:20:29.450Z,36.83
2022-09-11T12:22:56.210Z,46.30
2022-09-11T12:25:22.813Z,40.77
2022-09-11T12:27:55.522Z,33.90
2022-09-11T12:30:26.103Z,36.33
2022-09-11T12:32:55.142Z,30.97
2022-09-11T12:35:27.488Z,37.13
2022-09-11T12:38:01.801Z,33.33
2022-09-11T12:40:54.211Z,35.37
2022-09-11T12:43:36.219Z,31.80
2022-09-11T12:46:06.038Z,33.43
2022-09-11T12:48:41.233Z,31.87
2022-09-11T12:51:24.045Z,31.83
2022-09-11T12:54:00.118Z,29.00
2022-09-11T12:56:30.159Z,30.50
2022-09-11T12:59:09.235Z,28.60
2022-09-11T13:01:38.830Z,32.90
2022-09-11T13:04:12.059Z,26.13
2022-09-11T13:06:43.570Z,28.70
2022-09-11T13:09:24.712Z,28.50
2022-09-11T13:11:53.566Z,30.03
2022-09-11T13:14:31.146Z,29.90
2022-09-11T13:17:02.971Z,32.23
2022-09-11T13:19:35.825Z,32.93
2022-09-11T13:22:18.447Z,32.63
2022-09-11T13:24:45.161Z,30.93
2022-09-11T13:27:26.397Z,28.20
2022-09-11T13:29:56.284Z,26.20
2022-09-11T13:32:23.196Z,26.53
2022-09-11T13:34:54.396Z,24.40
2022-09-11T13:37:42.553Z,24.17
2022-09-11T13:40:19.606Z,24.10
2022-09-11T13:42:47.036Z,23.77
2022-09-11T13:45:19.159Z,23.57
2022-09-11T13:47:45.886Z,24.83
2022-09-11T13:50:17.812Z,23.90
2022-09-11T13:52:46.724Z,28.77
2022-09-11T13:55:22.238Z,25.50
2022-09-11T13:58:03.400Z,26.50
2022-09-11T14:00:40.338Z,26.53
2022-09-11T14:03:20.372Z,21.60
2022-09-11T14:05:54.004Z,27.40
2022-09-11T14:08:28.533Z,21.90
2022-09-11T14:11:11.182Z,24.77
2022-09-11T14:13:47.064Z,20.83
2022-09-11T14:16:13.742Z,20.27
2022-09-11T14:18:46.192Z,22.27
2022-09-11T14:21:20.202Z,18.63
2022-09-11T14:23:52.031Z,21.70
2022-09-11T14:26:20.247Z,19.23
2022-09-11T14:28:58.215Z,22.17
2022-09-11T14:31:46.215Z,24.57
2022-09-11T14:34:15.551Z,19.57
2022-09-11T14:36:46.744Z,21.40
2022-09-11T14:39:30.769Z,19.77
2022-09-11T14:41:58.895Z,24.40
2022-09-11T14:44:26.980Z,19.47
2022-09-11T14:46:54.920Z,22.13
2022-09-11T14:49:22.825Z,18.93
2022-09-11T14:51:57.985Z,25.63
2022-09-11T14:54:26.585Z,19.77
2022-09-11T14:56:53.352Z,20.73
2022-09-11T14:59:20.041Z,25.20
2022-09-11T15:01:47.096Z,22.13
2022-09-11T15:04:22.881Z,21.85
2022-09-11T15:06:55.286Z,20.73
2022-09-11T15:09:24.403Z,19.47
2022-09-11T15:11:52.268Z,20.70
2022-09-11T15:14:32.592Z,21.30
2022-09-11T15:17:13.110Z,18.43
2022-09-11T15:19:40.739Z,25.80
2022-09-11T15:22:08.211Z,21.37
2022-09-11T15:24:34.895Z,20.37
2022-09-11T15:27:01.489Z,26.20
2022-09-11T15:29:31.561Z,23.50
2022-09-11T15:32:00.950Z,26.30
2022-09-11T15:34:31.575Z,30.13
2022-09-11T15:36:58.319Z,32.30
2022-09-11T15:39:24.907Z,26.37
2022-09-11T15:41:51.693Z,28.80
2022-09-11T15:44:20.550Z,31.83
2022-09-11T15:46:50.001Z,28.27
2022-09-11T15:49:17.964Z,28.30
2022-09-11T15:51:44.535Z,28.43
2022-09-11T15:54:12.507Z,31.43
2022-09-11T15:56:39.127Z,30.87
2022-09-11T15:59:06.035Z,28.53
2022-09-11T16:01:37.228Z,27.60
2022-09-11T16:04:07.044Z,26.40
2022-09-11T16:06:38.103Z,25.57
2022-09-11T16:09:08.129Z,27.00
2022-09-11T16:11:36.419Z,23.90
2022-09-11T16:14:03.103Z,25.07
2022-09-11T16:16:29.671Z,27.03
2022-09-11T16:18:58.400Z,24.30
2022-09-11T16:21:27.022Z,28.43
2022-09-11T16:23:59.181Z,28.47
2022-09-11T16:26:28.913Z,28.37
2022-09-11T16:28:55.527Z,29.97
2022-09-11T16:31:22.247Z,25.70
2022-09-11T16:33:49.701Z,21.07
2022-09-11T16:36:20.800Z,23.33
2022-09-11T16:38:50.271Z,24.80
2022-09-11T16:41:19.712Z,28.87
2022-09-11T16:43:55.188Z,24.87
2022-09-11T16:46:25.101Z,27.33
2022-09-11T16:48:54.962Z,28.17
2022-09-11T16:51:23.550Z,27.97
2022-09-11T16:53:50.715Z,30.27
2022-09-11T16:56:20.562Z,28.00
2022-09-11T16:58:47.458Z,26.50
2022-09-11T17:01:20.152Z,28.23
2022-09-11T17:03:49.627Z,27.43
2022-09-11T17:06:19.484Z,29.60
2022-09-11T17:08:46.872Z,30.10
2022-09-11T17:11:15.612Z,31.47
2022-09-11T17:13:43.619Z,34.67
2022-09-11T17:16:16.821Z,34.43
2022-09-11T17:18:48.622Z,30.63
2022-09-11T17:21:16.188Z,32.77
2022-09-11T17:23:43.479Z,32.37
2022-09-11T17:26:15.074Z,35.90
2022-09-11T17:28:42.738Z,35.90
2022-09-11T17:31:11.324Z,32.30
2022-09-11T17:33:40.120Z,31.43
2022-09-11T17:36:09.772Z,35.40
2022-09-11T17:38:37.344Z,34.93
2022-09-11T17:41:06.452Z,37.10
2022-09-11T17:43:34.016Z,34.93
2022-09-11T17:46:21.004Z,34.33
2022-09-11T17:48:47.880Z,37.10
2022-09-11T17:51:21.099Z,34.33
2022-09-11T17:53:53.695Z,35.27
2022-09-11T17:56:23.329Z,34.37
2022-09-11T17:58:55.764Z,36.97
2022-09-11T18:01:23.685Z,34.53
2022-09-11T18:03:57.302Z,35.67
2022-09-11T18:06:36.001Z,35.07
2022-09-11T18:09:16.189Z,37.80
2022-09-11T18:11:45.088Z,34.70
2022-09-11T18:14:13.659Z,41.33
2022-09-11T18:16:40.837Z,36.60
2022-09-11T18:19:07.444Z,36.60
2022-09-11T18:21:38.128Z,39.70
2022-09-11T18:24:06.488Z,37.80
2022-09-11T18:26:36.568Z,42.43
2022-09-11T18:29:05.787Z,42.77
2022-09-11T18:31:39.805Z,41.57
2022-09-11T18:34:07.203Z,36.60
2022-09-11T18:36:33.786Z,35.60
2022-09-11T18:39:01.966Z,38.03
2022-09-11T18:41:30.802Z,39.83
2022-09-11T18:44:00.049Z,36.93
2022-09-11T18:46:27.365Z,39.57
2022-09-11T18:48:55.753Z,40.47
2022-09-11T18:51:22.510Z,35.30
2022-09-11T18:53:52.998Z,41.03
2022-09-11T18:56:25.096Z,36.53
2022-09-11T18:58:52.418Z,40.90
2022-09-11T19:01:24.548Z,46.37
2022-09-11T19:03:53.064Z,44.27
2022-09-11T19:06:22.523Z,39.00
2022-09-11T19:08:49.553Z,41.60
2022-09-11T19:11:22.299Z,41.97
2022-09-11T19:13:50.859Z,37.90
2022-09-11T19:16:18.762Z,44.33
2022-09-11T19:18:45.428Z,39.83
2022-09-11T19:21:15.755Z,44.63
2022-09-11T19:23:44.789Z,39.93
2022-09-11T19:26:14.157Z,37.07
2022-09-11T19:28:42.338Z,38.63
2022-09-11T19:31:10.905Z,36.47
2022-09-11T19:33:38.960Z,42.90
2022-09-11T19:36:17.033Z,37.70
2022-09-11T19:38:45.417Z,37.90
2022-09-11T19:41:15.340Z,44.53
2022-09-11T19:43:43.810Z,42.17
2022-09-11T19:46:13.609Z,43.20
2022-09-11T19:48:40.969Z,43.00
2022-09-11T19:51:13.101Z,43.90
2022-09-11T19:53:41.503Z,37.70
2022-09-11T19:56:10.008Z,37.37
2022-09-11T19:58:38.672Z,39.97
2022-09-11T20:01:14.326Z,39.63
2022-09-11T20:03:42.566Z,35.57
2022-09-11T20:06:10.638Z,39.90
2022-09-11T20:08:40.153Z,43.40
2022-09-11T20:11:07.457Z,36.60
2022-09-11T20:13:35.187Z,40.90
2022-09-11T20:16:06.251Z,42.60
2022-09-11T20:18:33.327Z,40.87
2022-09-11T20:21:04.467Z,40.83
2022-09-11T20:23:31.677Z,41.47
2022-09-11T20:26:17.361Z,41.43
2022-09-11T20:28:45.355Z,39.83
2022-09-11T20:31:12.998Z,40.97
2022-09-11T20:33:40.051Z,41.97
2022-09-11T20:36:06.946Z,41.10
2022-09-11T20:38:33.857Z,38.90
2022-09-11T20:41:05.693Z,49.33
2022-09-11T20:43:32.447Z,40.80
2022-09-11T20:46:00.494Z,45.97
2022-09-11T20:48:27.363Z,43.60
2022-09-11T20:50:55.422Z,43.50
2022-09-11T20:53:23.037Z,43.40
2022-09-11T20:55:50.146Z,42.30
2022-09-11T20:58:16.841Z,45.43
2022-09-11T21:00:44.906Z,44.70
2022-09-11T21:03:11.839Z,48.57
2022-09-11T21:05:38.897Z,44.87
2022-09-11T21:08:05.473Z,46.77
2022-09-11T21:10:35.805Z,48.50
2022-09-11T21:13:02.941Z,42.23
2022-09-11T21:15:29.583Z,49.83
2022-09-11T21:17:56.523Z,48.60
2022-09-11T21:20:23.280Z,59.00
2022-09-11T21:22:50.095Z,44.37
2022-09-11T21:25:16.773Z,54.37
2022-09-11T21:27:43.342Z,52.33
2022-09-11T21:30:10.319Z,48.07
2022-09-11T21:32:36.937Z,49.70
2022-09-11T21:35:04.168Z,49.13
2022-09-11T21:37:31.882Z,50.03
2022-09-11T21:39:58.712Z,48.20
2022-09-11T21:42:25.336Z,50.43
2022-09-11T21:44:51.986Z,51.10
2022-09-11T21:47:18.855Z,53.77
2022-09-11T21:49:45.454Z,49.13
2022-09-11T21:52:12.041Z,50.40
2022-09-11T21:54:39.050Z,52.97
2022-09-11T21:57:05.925Z,53.33
2022-09-11T21:59:32.679Z,46.80
2022-09-11T22:01:59.295Z,51.40
2022-09-11T22:04:25.923Z,58.70
2022-09-11T22:06:53.221Z,48.33
2022-09-11T22:09:20.700Z,49.60
2022-09-11T22:11:48.309Z,51.40
2022-09-11T22:14:19.983Z,53.73
2022-09-11T22:16:46.851Z,57.80
2022-09-11T22:19:13.805Z,50.83
2022-09-11T22:21:40.792Z,53.23
2022-09-11T22:24:07.413Z,51.23
2022-09-11T22:26:34.078Z,49.10
2022-09-11T22:29:00.765Z,55.03
2022-09-11T22:31:28.714Z,45.00
2022-09-11T22:33:55.581Z,48.63
2022-09-11T22:36:27.838Z,47.50
2022-09-11T22:38:55.452Z,50.90
2022-09-11T22:41:22.662Z,46.57
2022-09-11T22:43:50.039Z,44.40
2022-09-11T22:46:20.539Z,48.90
2022-09-11T22:48:47.598Z,46.43
2022-09-11T22:51:14.232Z,47.23
2022-09-11T22:53:41.046Z,50.37
2022-09-11T22:56:08.194Z,42.27
2022-09-11T22:58:35.501Z,44.50
2022-09-11T23:01:03.648Z,49.20
2022-09-11T23:03:30.674Z,42.93
2022-09-11T23:06:17.186Z,44.50
2022-09-11T23:08:45.760Z,43.30
2022-09-11T23:11:15.190Z,39.83
2022-09-11T23:13:43.081Z,43.00
2022-09-11T23:16:15.233Z,42.10
2022-09-11T23:18:42.753Z,41.10
2022-09-11T23:21:09.893Z,41.17
2022-09-11T23:23:42.282Z,42.27
2022-09-11T23:26:10.787Z,44.33
2022-09-11T23:28:37.791Z,46.80
2022-09-11T23:31:14.487Z,48.63
2022-09-11T23:33:41.458Z,39.47
2022-09-11T23:36:09.959Z,46.27
2022-09-11T23:38:36.585Z,42.13
2022-09-11T23:41:03.403Z,48.20
2022-09-11T23:43:30.065Z,38.73
2022-09-11T23:45:56.834Z,41.17
2022-09-11T23:48:23.728Z,43.30
2022-09-11T23:50:50.347Z,39.50
2022-09-11T23:53:16.991Z,33.53
2022-09-11T23:55:47.651Z,40.27
2022-09-11T23:58:14.663Z,40.47
